Time;durP1;ratioP1;P1;durP2;ratioP2;P2;SDS_P1;SDS_P2;PMS_P1;PMS_P2;Temp;Humidity;BMP_temperature;BMP_pressure;BME280_temperature;BME280_humidity;BME280_pressure;Samples;Min_cycle;Max_cycle;Signal;HPM_P1;HPM_P2
2023/09/27 00:01:42;;;;;;;10.23;4.70;;;;;;;18.30;70.97;100348.41;5049073;28;20028;-81
2023/09/27 00:04:08;;;;;;;11.02;4.60;;;;;;;17.20;72.30;100358.72;5056332;28;20028;-80
2023/09/27 00:06:34;;;;;;;14.00;4.80;;;;;;;17.78;73.24;100347.28;5060169;28;20037;-81
2023/09/27 00:08:59;;;;;;;12.27;4.97;;;;;;;17.70;71.44;100335.09;5048107;28;20036;-80
2023/09/27 00:11:24;;;;;;;12.77;5.10;;;;;;;17.95;69.73;100342.56;5049429;28;20497;-80
2023/09/27 00:13:50;;;;;;;17.02;5.10;;;;;;;17.84;69.54;100335.50;5052213;28;20454;-82
2023/09/27 00:16:15;;;;;;;13.18;5.32;;;;;;;17.81;69.64;100335.97;5049727;28;20032;-82
2023/09/27 00:18:41;;;;;;;12.35;5.20;;;;;;;18.00;71.10;100356.09;5063129;28;20562;-81
2023/09/27 00:21:06;;;;;;;13.07;5.25;;;;;;;17.73;70.03;100320.28;5069572;28;20028;-82
2023/09/27 00:23:31;;;;;;;11.73;4.85;;;;;;;17.59;71.61;100334.22;5050229;28;20029;-80
2023/09/27 00:25:57;;;;;;;11.63;4.72;;;;;;;18.23;71.11;100341.38;5049342;28;20402;-81
2023/09/27 00:28:22;;;;;;;14.38;5.45;;;;;;;17.96;71.41;100322.63;5051958;28;20048;-81
2023/09/27 00:30:51;;;;;;;12.25;4.68;;;;;;;17.90;72.84;100334.44;5070014;28;20029;-81
2023/09/27 00:33:16;;;;;;;12.15;5.95;;;;;;;18.01;72.42;100324.53;5052762;28;20037;-81
2023/09/27 00:35:47;;;;;;;15.68;5.20;;;;;;;18.13;70.48;100316.22;5051650;28;20071;-83
2023/09/27 00:38:13;;;;;;;13.70;5.07;;;;;;;18.24;70.17;100317.88;5062724;28;20041;-81
2023/09/27 00:40:44;;;;;;;11.68;4.80;;;;;;;18.14;70.18;100315.13;5049932;28;20378;-82
2023/09/27 00:43:10;;;;;;;13.45;4.25;;;;;;;17.91;71.34;100322.56;5048194;28;20041;-81
2023/09/27 00:45:35;;;;;;;13.32;4.55;;;;;;;17.77;70.91;100303.28;5048561;28;20090;-81
2023/09/27 00:48:01;;;;;;;8.70;4.38;;;;;;;17.70;72.62;100313.53;5063748;28;20057;-81
2023/09/27 00:50:26;;;;;;;10.10;4.32;;;;;;;17.29;72.65;100285.47;5047564;28;20021;-82
2023/09/27 00:52:52;;;;;;;12.10;4.20;;;;;;;17.38;71.57;100311.66;5049203;28;20494;-81
2023/09/27 00:55:21;;;;;;;14.82;4.93;;;;;;;17.44;72.70;100313.31;5051607;28;20025;-81
2023/09/27 00:57:49;;;;;;;9.63;4.15;;;;;;;17.34;72.03;100280.09;5053239;28;20041;-82
2023/09/27 01:00:15;;;;;;;10.13;4.10;;;;;;;17.77;71.46;100308.69;5065306;28;20616;-81
2023/09/27 01:02:41;;;;;;;11.77;4.80;;;;;;;17.44;71.62;100305.25;5063821;28;20071;-81
2023/09/27 01:05:10;;;;;;;13.18;4.78;;;;;;;17.61;70.09;100310.50;5052707;28;20135;-80
2023/09/27 01:07:37;;;;;;;10.18;4.32;;;;;;;17.33;70.37;100308.13;5056553;28;20029;-81
2023/09/27 01:10:03;;;;;;;13.27;4.30;;;;;;;17.63;72.81;100316.44;5063710;28;20424;-81
2023/09/27 01:12:29;;;;;;;11.07;4.32;;;;;;;17.56;72.33;100283.50;5066386;28;20784;-81
2023/09/27 01:14:56;;;;;;;12.20;5.43;;;;;;;17.38;73.15;100289.28;5052682;28;20029;-81
2023/09/27 01:17:21;;;;;;;10.70;4.25;;;;;;;17.16;74.91;100309.09;5051653;28;20143;-81
2023/09/27 01:19:47;;;;;;;12.98;4.80;;;;;;;17.21;74.65;100321.78;5060449;28;20021;-81
2023/09/27 01:22:12;;;;;;;9.77;4.50;;;;;;;17.27;73.60;100307.28;5051089;28;20033;-82
2023/09/27 01:24:37;;;;;;;9.93;4.78;;;;;;;16.85;73.90;100289.91;5052615;28;20025;-81
2023/09/27 01:27:08;;;;;;;12.23;5.03;;;;;;;17.03;73.16;100286.06;5054946;28;20416;-81
2023/09/27 01:29:34;;;;;;;11.18;4.65;;;;;;;16.85;73.87;100306.09;5059779;28;20025;-80
2023/09/27 01:31:59;;;;;;;9.43;4.85;;;;;;;16.98;74.20;100304.88;5052855;28;20047;-81
2023/09/27 01:34:24;;;;;;;12.13;4.50;;;;;;;16.90;75.54;100291.03;5071222;28;20020;-80
2023/09/27 01:36:51;;;;;;;12.05;4.40;;;;;;;17.29;75.79;100307.03;5056315;28;20040;-82
2023/09/27 01:39:16;;;;;;;11.15;4.95;;;;;;;17.35;74.81;100304.09;5053152;28;20593;-81
2023/09/27 01:41:42;;;;;;;11.90;3.92;;;;;;;17.08;75.02;100293.38;5072174;28;20500;-82
2023/09/27 01:44:09;;;;;;;13.38;4.75;;;;;;;17.11;74.52;100305.53;5056001;28;20418;-81
2023/09/27 01:46:35;;;;;;;10.68;4.05;;;;;;;17.15;73.59;100280.50;5066294;28;20048;-82
2023/09/27 01:49:00;;;;;;;10.07;4.78;;;;;;;17.20;72.67;100314.75;5062499;28;20048;-82
2023/09/27 01:51:26;;;;;;;8.88;4.60;;;;;;;16.89;74.43;100297.50;5051993;28;20054;-81
2023/09/27 01:53:51;;;;;;;10.18;4.40;;;;;;;16.92;74.56;100307.75;5052434;28;20029;-82
2023/09/27 01:56:16;;;;;;;11.35;4.85;;;;;;;16.82;77.45;100309.31;5052193;28;20112;-81
2023/09/27 01:58:44;;;;;;;9.38;4.07;;;;;;;16.92;75.93;100294.28;5065994;28;20040;-83
2023/09/27 02:01:10;;;;;;;10.60;4.10;;;;;;;17.11;72.66;100295.56;5052477;28;20033;-81
2023/09/27 02:03:35;;;;;;;9.30;4.53;;;;;;;16.96;74.28;100303.50;5051546;28;20029;-80
2023/09/27 02:06:00;;;;;;;12.55;4.45;;;;;;;16.96;73.35;100319.66;5052370;28;20466;-82
2023/09/27 02:08:26;;;;;;;12.65;4.13;;;;;;;16.86;76.68;100310.41;5060118;28;20036;-80
2023/09/27 02:10:51;;;;;;;10.43;5.18;;;;;;;16.96;76.91;100319.66;5070508;28;20037;-82
2023/09/27 02:13:17;;;;;;;11.15;4.25;;;;;;;16.74;78.75;100303.53;5067285;28;20028;-81
2023/09/27 02:15:42;;;;;;;11.00;4.57;;;;;;;16.66;76.62;100310.19;5051635;28;20064;-81
2023/09/27 02:18:07;;;;;;;10.98;4.13;;;;;;;16.38;77.53;100306.63;5055603;28;20017;-81
2023/09/27 02:20:33;;;;;;;13.40;4.18;;;;;;;16.46;76.34;100295.41;5050264;28;20539;-82
2023/09/27 02:22:58;;;;;;;10.73;4.55;;;;;;;16.33;76.16;100311.16;5051582;28;20029;-80
2023/09/27 02:25:24;;;;;;;13.75;5.18;;;;;;;16.37;76.33;100313.09;5050243;28;20033;-80
2023/09/27 02:27:50;;;;;;;12.38;4.50;;;;;;;16.32;79.02;100299.56;5050202;28;20021;-82
2023/09/27 02:30:15;;;;;;;10.43;5.18;;;;;;;16.53;79.04;100305.19;5051505;28;20044;-81
2023/09/27 02:32:42;;;;;;;10.75;4.60;;;;;;;16.99;74.78;100319.97;5051927;28;20025;-81
2023/09/27 02:35:09;;;;;;;11.57;4.78;;;;;;;17.48;76.08;100303.66;5049827;28;20132;-81
2023/09/27 02:37:39;;;;;;;11.00;4.53;;;;;;;16.73;75.30;100310.78;5050268;28;20405;-80
2023/09/27 02:40:11;;;;;;;11.88;4.78;;;;;;;16.37;76.58;100290.75;5050642;28;20091;-80
2023/09/27 02:42:40;;;;;;;8.85;4.28;;;;;;;16.44;75.86;100319.09;5051686;28;20036;-80
2023/09/27 02:45:08;;;;;;;12.10;5.13;;;;;;;16.51;76.35;100318.06;5050362;28;20025;-81
2023/09/27 02:47:34;;;;;;;9.82;4.40;;;;;;;16.25;79.57;100310.53;5050957;28;20122;-81
2023/09/27 02:49:59;;;;;;;13.60;5.32;;;;;;;15.52;80.68;100311.63;5068064;28;20036;-81
2023/09/27 02:52:25;;;;;;;13.05;4.65;;;;;;;16.07;79.77;100314.31;5053678;28;20025;-80
2023/09/27 02:54:53;;;;;;;12.27;5.43;;;;;;;16.10;79.10;100312.19;5051664;28;20777;-81
2023/09/27 02:57:19;;;;;;;11.70;5.97;;;;;;;15.70;82.53;100330.19;5050166;28;20044;-81
2023/09/27 02:59:45;;;;;;;13.85;4.60;;;;;;;15.66;82.53;100332.53;5051834;28;20036;-82
2023/09/27 03:02:11;;;;;;;12.18;5.15;;;;;;;16.09;80.47;100330.22;5068170;28;20037;-81
2023/09/27 03:04:36;;;;;;;13.82;5.15;;;;;;;16.44;80.97;100324.47;5070072;28;20044;-82
2023/09/27 03:07:02;;;;;;;10.95;5.38;;;;;;;16.87;78.99;100335.47;5058798;28;20039;-82
2023/09/27 03:09:27;;;;;;;12.45;5.25;;;;;;;17.17;78.35;100329.56;5063088;28;20161;-85
2023/09/27 03:11:53;;;;;;;11.85;5.68;;;;;;;16.85;78.21;100314.16;5058642;28;20049;-81
2023/09/27 03:14:18;;;;;;;9.45;5.10;;;;;;;16.30;79.62;100303.56;5065161;28;20020;-81
2023/09/27 03:16:43;;;;;;;16.10;6.40;;;;;;;16.78;77.95;100312.72;5072170;28;20037;-81
2023/09/27 03:19:09;;;;;;;14.20;6.32;;;;;;;16.54;78.39;100307.63;5061700;28;20079;-85
2023/09/27 03:21:34;;;;;;;12.75;5.65;;;;;;;16.57;79.83;100314.38;5060402;28;20517;-81
2023/09/27 03:24:03;;;;;;;13.02;6.38;;;;;;;17.35;77.52;100338.34;5072606;28;20512;-82
2023/09/27 03:26:28;;;;;;;16.27;6.00;;;;;;;17.39;77.37;100344.84;5052814;28;20067;-82
2023/09/27 03:28:54;;;;;;;10.82;5.57;;;;;;;17.46;76.54;100329.25;5054877;28;20029;-82
2023/09/27 03:31:21;;;;;;;12.93;6.10;;;;;;;17.17;77.18;100324.16;5063951;28;20263;-81
2023/09/27 03:33:46;;;;;;;16.75;6.45;;;;;;;17.16;78.07;100351.38;5074076;28;20092;-83
2023/09/27 03:36:12;;;;;;;13.98;5.80;;;;;;;17.09;77.92;100319.25;5054879;28;20473;-81
2023/09/27 03:38:38;;;;;;;9.10;5.50;;;;;;;17.27;77.93;100340.44;5054116;28;20562;-83
2023/09/27 03:41:09;;;;;;;13.00;5.82;;;;;;;17.00;77.93;100337.75;5061319;28;20060;-82
2023/09/27 03:43:34;;;;;;;13.98;6.55;;;;;;;17.01;78.98;100342.06;5071778;28;20037;-83
2023/09/27 03:46:05;;;;;;;14.40;5.65;;;;;;;16.84;77.96;100339.50;5054986;28;20021;-82
2023/09/27 03:48:34;;;;;;;14.65;6.65;;;;;;;16.59;79.18;100341.84;5051578;28;20073;-81
2023/09/27 03:51:00;;;;;;;14.23;6.13;;;;;;;16.80;79.08;100337.53;5054985;28;20401;-81
2023/09/27 03:53:25;;;;;;;13.55;6.00;;;;;;;16.73;80.28;100342.28;5052462;28;20029;-82
2023/09/27 03:55:51;;;;;;;14.60;5.75;;;;;;;16.89;79.94;100356.78;5061567;28;20115;-82
2023/09/27 03:58:16;;;;;;;12.02;6.10;;;;;;;17.13;79.76;100352.69;5058357;28;20033;-82
2023/09/27 04:00:42;;;;;;;12.63;6.00;;;;;;;16.87;78.79;100338.97;5050793;28;20060;-81
2023/09/27 04:03:07;;;;;;;14.05;6.05;;;;;;;16.95;78.22;100347.66;5049200;28;20029;-81
2023/09/27 04:05:33;;;;;;;13.52;6.00;;;;;;;17.07;77.99;100341.06;5049249;28;20120;-81
2023/09/27 04:07:58;;;;;;;12.73;5.43;;;;;;;17.19;78.47;100338.19;5057949;28;20032;-82
2023/09/27 04:10:24;;;;;;;11.45;5.45;;;;;;;17.00;78.41;100340.47;5055816;28;20496;-82
2023/09/27 04:12:50;;;;;;;18.20;5.40;;;;;;;16.94;77.49;100321.78;5050219;28;20048;-82
2023/09/27 04:15:16;;;;;;;15.75;5.88;;;;;;;17.04;78.23;100338.03;5050225;28;20708;-82
2023/09/27 04:17:44;;;;;;;17.08;6.47;;;;;;;17.10;77.70;100337.06;5049018;28;20060;-81
2023/09/27 04:20:17;;;;;;;17.33;5.65;;;;;;;17.01;76.73;100360.13;5052647;28;20104;-83
2023/09/27 04:22:46;;;;;;;17.55;6.13;;;;;;;16.88;76.86;100350.56;5050567;28;20064;-83
2023/09/27 04:25:12;;;;;;;12.65;5.32;;;;;;;16.93;76.76;100339.84;5051529;28;20028;-85
2023/09/27 04:27:39;;;;;;;12.43;6.05;;;;;;;16.89;76.20;100362.16;5070068;28;20031;-82
2023/09/27 04:30:11;;;;;;;15.33;6.57;;;;;;;16.72;77.90;100357.63;5063769;28;20029;-83
2023/09/27 04:32:39;;;;;;;14.68;6.28;;;;;;;16.44;81.43;100350.56;5053952;28;20033;-81
2023/09/27 04:35:05;;;;;;;18.42;6.75;;;;;;;16.69;79.96;100347.34;5054088;28;20470;-82
2023/09/27 04:37:30;;;;;;;17.88;7.13;;;;;;;16.58;80.74;100345.63;5053836;28;20027;-82
2023/09/27 04:39:55;;;;;;;14.50;6.53;;;;;;;16.56;80.31;100334.31;5068314;28;20037;-81
2023/09/27 04:42:21;;;;;;;15.77;6.68;;;;;;;16.74;79.94;100339.34;5071057;28;20397;-84
2023/09/27 04:44:46;;;;;;;22.98;6.93;;;;;;;16.72;81.11;100352.25;5053563;28;20052;-82
2023/09/27 04:47:11;;;;;;;25.40;8.35;;;;;;;16.59;81.47;100348.06;5053349;28;20053;-82
2023/09/27 04:49:37;;;;;;;14.68;5.75;;;;;;;16.68;80.62;100346.56;5054489;28;20053;-82
2023/09/27 04:52:02;;;;;;;19.33;6.57;;;;;;;17.09;79.81;100354.28;5055274;28;20083;-82
2023/09/27 04:54:28;;;;;;;14.05;6.88;;;;;;;17.03;79.27;100349.91;5053397;28;20166;-82
2023/09/27 04:56:55;;;;;;;10.70;5.70;;;;;;;17.17;79.02;100369.19;5051947;28;20064;-81
2023/09/27 04:59:21;;;;;;;12.23;5.63;;;;;;;17.39;77.92;100379.91;5052161;28;20084;-82
2023/09/27 05:01:46;;;;;;;9.85;5.35;;;;;;;17.06;77.66;100363.69;5059412;28;20099;-82
2023/09/27 05:04:12;;;;;;;16.35;6.70;;;;;;;17.34;77.14;100371.75;5058336;28;20504;-85
2023/09/27 05:06:37;;;;;;;13.20;5.63;;;;;;;17.18;78.77;100354.63;5053308;28;20029;-81
2023/09/27 05:09:05;;;;;;;10.95;5.72;;;;;;;17.24;76.41;100359.81;5055619;28;20032;-81
2023/09/27 05:11:31;;;;;;;12.23;5.93;;;;;;;17.33;77.19;100351.28;5064709;28;20062;-82
2023/09/27 05:13:56;;;;;;;16.77;5.72;;;;;;;17.33;75.92;100356.66;5053759;28;20033;-82
2023/09/27 05:16:21;;;;;;;12.40;5.22;;;;;;;17.40;76.01;100362.63;5053025;28;20546;-81
2023/09/27 05:18:47;;;;;;;9.55;5.35;;;;;;;17.62;74.46;100359.84;5052880;28;20546;-81
2023/09/27 05:21:13;;;;;;;10.32;5.05;;;;;;;17.78;74.69;100368.88;5063416;28;20517;-82
2023/09/27 05:23:39;;;;;;;13.95;5.35;;;;;;;17.75;73.58;100369.38;5065077;28;20108;-83
2023/09/27 05:26:04;;;;;;;18.17;5.60;;;;;;;17.83;74.41;100382.41;5051757;28;20037;-82
2023/09/27 05:28:32;;;;;;;10.52;5.60;;;;;;;17.73;73.18;100382.31;5052151;28;20028;-81
2023/09/27 05:30:57;;;;;;;10.13;5.53;;;;;;;17.93;73.02;100398.66;5068552;28;20067;-83
2023/09/27 05:33:24;;;;;;;9.45;4.68;;;;;;;17.97;71.82;100383.59;5052684;28;20061;-82
2023/09/27 05:35:50;;;;;;;11.23;5.37;;;;;;;17.43;73.71;100365.63;5052509;28;20024;-82
2023/09/27 05:38:16;;;;;;;10.63;5.32;;;;;;;17.74;72.65;100381.25;5051594;28;20648;-83
2023/09/27 05:40:41;;;;;;;12.65;4.82;;;;;;;18.17;71.97;100392.91;5065069;28;20029;-82
2023/09/27 05:43:07;;;;;;;10.93;4.82;;;;;;;18.38;72.04;100389.22;5070455;28;20044;-81
2023/09/27 05:45:32;;;;;;;20.00;5.88;;;;;;;18.38;70.44;100396.50;5052749;28;20033;-82
2023/09/27 05:47:58;;;;;;;9.98;5.15;;;;;;;18.30;70.09;100395.09;5050977;28;20049;-82
2023/09/27 05:50:23;;;;;;;13.25;6.05;;;;;;;18.54;70.37;100403.59;5065829;28;20039;-81
2023/09/27 05:52:49;;;;;;;13.00;5.25;;;;;;;18.64;69.47;100413.66;5054717;28;20086;-81
2023/09/27 05:55:15;;;;;;;13.48;5.20;;;;;;;18.33;70.67;100388.38;5051175;28;20021;-83
2023/09/27 05:57:41;;;;;;;8.23;4.75;;;;;;;18.55;69.85;100404.41;5050880;28;20033;-81
2023/09/27 06:00:14;;;;;;;10.95;4.85;;;;;;;18.36;70.39;100382.47;5050735;28;20032;-83
2023/09/27 06:02:40;;;;;;;12.35;4.60;;;;;;;18.78;69.31;100398.56;5051733;28;20035;-82
2023/09/27 06:05:06;;;;;;;12.23;5.15;;;;;;;18.93;69.14;100394.31;5065041;28;20119;-81
2023/09/27 06:07:33;;;;;;;10.55;4.97;;;;;;;19.23;69.08;100405.19;5061326;28;20021;-81
2023/09/27 06:10:01;;;;;;;14.55;5.53;;;;;;;19.24;68.33;100395.19;5059403;28;20469;-83
2023/09/27 06:12:27;;;;;;;11.60;5.78;;;;;;;19.26;69.57;100398.44;5050314;28;20477;-82
2023/09/27 06:14:52;;;;;;;14.10;5.10;;;;;;;19.64;68.58;100404.41;5048846;28;20036;-80
2023/09/27 06:17:17;;;;;;;16.27;6.32;;;;;;;19.80;68.12;100416.88;5055117;28;20028;-80
2023/09/27 06:19:43;;;;;;;15.65;6.20;;;;;;;19.90;68.27;100413.38;5064425;28;20025;-80
2023/09/27 06:22:09;;;;;;;13.57;5.43;;;;;;;20.04;68.46;100419.84;5054234;28;20501;-80
2023/09/27 06:24:34;;;;;;;13.43;5.53;;;;;;;20.09;67.96;100404.66;5050609;28;20092;-80
2023/09/27 06:27:00;;;;;;;15.30;6.30;;;;;;;20.37;67.70;100417.59;5041355;28;20033;-80
2023/09/27 06:29:25;;;;;;;15.38;6.82;;;;;;;20.23;68.01;100395.69;5038093;28;20051;-80
2023/09/27 06:31:51;;;;;;;13.90;6.43;;;;;;;20.54;67.04;100408.34;5052229;28;20024;-84
2023/09/27 06:34:17;;;;;;;14.18;6.00;;;;;;;20.63;66.46;100398.56;5057705;28;20033;-81
2023/09/27 06:36:43;;;;;;;13.40;5.95;;;;;;;20.96;64.95;100407.06;5048652;28;20597;-80
2023/09/27 06:39:13;;;;;;;12.05;6.07;;;;;;;21.05;64.13;100405.41;5048484;28;20028;-84
2023/09/27 06:41:39;;;;;;;15.75;7.15;;;;;;;21.20;63.05;100402.56;5054702;28;20534;-80
2023/09/27 06:44:08;;;;;;;12.98;6.07;;;;;;;21.30;63.62;100406.31;5050026;28;20482;-80
2023/09/27 06:46:35;;;;;;;15.98;6.72;;;;;;;21.72;61.54;100432.91;5048594;28;20517;-82
2023/09/27 06:49:03;;;;;;;13.68;5.70;;;;;;;21.76;60.53;100428.50;5066523;28;20035;-80
2023/09/27 06:51:29;;;;;;;13.85;6.25;;;;;;;21.79;60.78;100435.28;5052556;28;20037;-81
2023/09/27 06:53:57;;;;;;;15.88;6.90;;;;;;;21.81;59.89;100409.44;5051732;28;20131;-81
2023/09/27 06:56:23;;;;;;;;;;;;;;;22.27;59.58;100438.09;5050234;28;20029;-81
2023/09/27 06:58:58;;;;;;;9.85;5.80;;;;;;;22.20;59.83;100427.53;5062817;28;19912;-83
2023/09/27 07:01:24;;;;;;;19.90;6.57;;;;;;;22.36;58.46;100417.34;5054747;28;20036;-80
2023/09/27 07:03:50;;;;;;;15.02;6.28;;;;;;;22.50;58.18;100417.47;5050291;28;20037;-81
2023/09/27 07:06:18;;;;;;;15.43;6.28;;;;;;;22.57;58.32;100433.41;5049958;28;20051;-80
2023/09/27 07:08:46;;;;;;;12.45;5.15;;;;;;;22.90;56.85;100422.69;5050169;28;20143;-81
2023/09/27 07:11:13;;;;;;;14.57;5.20;;;;;;;23.11;56.57;100439.53;5049649;28;20442;-82
2023/09/27 07:13:38;;;;;;;10.52;5.68;;;;;;;23.30;55.51;100418.59;5053287;28;20036;-81
2023/09/27 07:16:26;;;;;;;12.57;5.00;;;;;;;23.43;53.53;100411.59;5062025;28;20158;-81
2023/09/27 07:18:59;;;;;;;13.20;5.78;;;;;;;23.50;53.63;100416.66;5058951;28;20036;-81
2023/09/27 07:21:25;;;;;;;17.63;5.53;;;;;;;23.46;54.09;100435.50;5061412;28;20499;-81
2023/09/27 07:23:52;;;;;;;13.13;4.72;;;;;;;23.69;53.64;100419.34;5066206;28;20117;-81
2023/09/27 07:26:17;;;;;;;8.70;4.90;;;;;;;23.74;52.33;100430.13;5068777;28;20114;-81
2023/09/27 07:28:45;;;;;;;13.73;4.63;;;;;;;23.62;54.29;100420.53;5060666;28;20091;-81
2023/09/27 07:31:12;;;;;;;13.45;4.82;;;;;;;23.54;53.74;100418.50;5049738;28;20103;-83
2023/09/27 07:33:37;;;;;;;15.00;5.47;;;;;;;23.61;53.12;100435.25;5053194;28;20037;-81
2023/09/27 07:36:05;;;;;;;13.82;5.50;;;;;;;23.64;53.24;100422.97;5048321;28;20037;-82
2023/09/27 07:38:30;;;;;;;13.10;5.47;;;;;;;23.78;52.59;100428.47;5049497;28;20029;-81
2023/09/27 07:40:56;;;;;;;10.13;4.93;;;;;;;24.27;50.77;100429.75;5049592;28;20656;-81
2023/09/27 07:43:21;;;;;;;11.35;4.30;;;;;;;23.91;51.83;100437.81;5049476;28;20033;-83
2023/09/27 07:45:47;;;;;;;12.75;4.97;;;;;;;23.73;53.05;100425.81;5057224;28;20033;-81
2023/09/27 07:48:13;;;;;;;10.95;4.80;;;;;;;23.80;53.67;100437.16;5051673;28;20115;-80
2023/09/27 07:50:40;;;;;;;10.02;4.75;;;;;;;23.60;51.08;100416.47;5067685;28;20037;-81
2023/09/27 07:53:08;;;;;;;11.30;5.07;;;;;;;23.72;52.71;100414.13;5061831;28;20040;-82
2023/09/27 07:55:43;;;;;;;10.45;5.20;;;;;;;23.84;51.89;100438.16;5050012;28;20032;-80
2023/09/27 07:58:09;;;;;;;12.00;4.47;;;;;;;23.98;51.66;100430.03;5050307;28;20033;-80
2023/09/27 08:00:35;;;;;;;20.20;5.30;;;;;;;23.99;52.62;100435.19;5050182;28;20029;-81
2023/09/27 08:03:03;;;;;;;16.25;5.03;;;;;;;23.97;52.39;100431.97;5054053;28;20035;-80
2023/09/27 08:05:29;;;;;;;9.60;5.15;;;;;;;24.10;51.37;100429.56;5060037;28;20111;-80
2023/09/27 08:07:54;;;;;;;15.15;4.78;;;;;;;23.94;51.71;100410.75;5073367;28;20111;-81
2023/09/27 08:10:21;;;;;;;10.70;4.50;;;;;;;24.03;51.80;100436.22;5057208;28;20032;-81
2023/09/27 08:12:47;;;;;;;12.60;4.80;;;;;;;24.14;50.40;100425.13;5058203;28;20508;-80
2023/09/27 08:15:13;;;;;;;10.57;4.60;;;;;;;24.32;49.64;100432.41;5061977;28;20017;-81
2023/09/27 08:17:38;;;;;;;11.02;4.60;;;;;;;24.26;50.05;100441.78;5055136;28;20059;-82
2023/09/27 08:20:07;;;;;;;12.32;4.15;;;;;;;24.25;50.90;100431.97;5054255;28;20025;-82
2023/09/27 08:22:34;;;;;;;13.88;4.40;;;;;;;24.41;50.45;100427.84;5065048;28;20536;-80
2023/09/27 08:25:00;;;;;;;9.65;4.57;;;;;;;24.44;48.84;100440.88;5054999;28;20052;-80
2023/09/27 08:27:28;;;;;;;11.40;4.15;;;;;;;24.37;49.82;100428.75;5052064;28;20037;-81
2023/09/27 08:29:53;;;;;;;10.68;4.18;;;;;;;24.57;49.18;100438.50;5053520;28;20430;-80
2023/09/27 08:32:19;;;;;;;15.30;4.45;;;;;;;24.83;48.74;100458.66;5062891;28;20052;-81
2023/09/27 08:34:49;;;;;;;9.95;4.55;;;;;;;24.62;48.23;100435.66;5058302;28;20063;-80
2023/09/27 08:37:17;;;;;;;15.15;4.60;;;;;;;24.76;47.20;100441.91;5047261;28;20518;-82
2023/09/27 08:39:43;;;;;;;8.02;3.97;;;;;;;24.73;48.10;100447.97;5053662;28;20025;-83
2023/09/27 08:42:09;;;;;;;10.77;4.47;;;;;;;24.59;48.47;100441.72;5052141;28;20048;-81
2023/09/27 08:44:35;;;;;;;12.07;4.05;;;;;;;24.83;49.08;100439.56;5062924;28;20108;-84
2023/09/27 08:47:01;;;;;;;9.00;3.80;;;;;;;24.86;44.98;100436.22;5065208;28;20943;-81
2023/09/27 08:49:27;;;;;;;8.52;4.88;;;;;;;24.73;45.49;100404.34;5067982;28;20021;-81
2023/09/27 08:51:53;;;;;;;11.68;4.25;;;;;;;24.79;46.04;100433.13;5053711;28;20109;-82
2023/09/27 08:54:21;;;;;;;13.50;4.70;;;;;;;24.81;46.51;100424.63;5052298;28;20040;-81
2023/09/27 08:56:48;;;;;;;14.10;4.20;;;;;;;25.09;46.03;100433.56;5052354;28;20025;-80
2023/09/27 08:59:15;;;;;;;16.70;4.73;;;;;;;25.08;46.13;100431.94;5053557;28;20031;-81
2023/09/27 09:01:44;;;;;;;10.48;4.32;;;;;;;25.23;46.66;100434.38;5055062;28;20289;-81
2023/09/27 09:04:13;;;;;;;11.75;4.30;;;;;;;25.49;44.04;100422.03;5064712;28;20471;-81
2023/09/27 09:06:41;;;;;;;10.90;4.50;;;;;;;25.55;44.22;100429.78;5059783;28;20523;-80
2023/09/27 09:09:11;;;;;;;14.30;4.85;;;;;;;25.58;43.44;100411.97;5052434;28;20032;-82
2023/09/27 09:11:54;;;;;;;10.15;3.75;;;;;;;25.79;43.24;100425.94;5053338;28;20053;-81
2023/09/27 09:14:37;;;;;;;11.13;4.13;;;;;;;25.79;42.65;100420.47;5055879;28;20028;-81
2023/09/27 09:17:03;;;;;;;15.05;4.90;;;;;;;25.83;42.34;100418.72;5072335;28;20025;-81
2023/09/27 09:19:31;;;;;;;11.05;4.43;;;;;;;25.74;44.50;100436.97;5072151;28;20034;-81
2023/09/27 09:22:05;;;;;;;8.57;3.60;;;;;;;25.89;42.45;100427.56;5054905;28;20025;-82
2023/09/27 09:24:35;;;;;;;11.10;4.22;;;;;;;25.95;45.00;100427.19;5069337;28;20417;-81
2023/09/27 09:27:09;;;;;;;11.90;4.03;;;;;;;25.24;45.15;100403.22;5061101;28;20119;-81
2023/09/27 09:29:50;;;;;;;7.72;3.63;;;;;;;25.20;43.96;100409.59;5053000;28;20075;-83
2023/09/27 09:32:24;;;;;;;14.07;4.15;;;;;;;24.99;44.40;100392.88;5050811;28;20128;-82
2023/09/27 09:34:54;;;;;;;11.60;4.32;;;;;;;24.97;44.99;100408.75;5057623;28;20028;-81
2023/09/27 09:37:26;;;;;;;14.90;4.15;;;;;;;25.17;44.19;100424.66;5059484;28;20056;-81
2023/09/27 09:39:54;;;;;;;10.77;5.25;;;;;;;25.53;43.53;100418.38;5053400;28;20040;-82
2023/09/27 09:42:33;;;;;;;8.65;3.67;;;;;;;26.18;42.17;100427.13;5052471;28;20052;-84
2023/09/27 09:45:06;;;;;;;11.23;3.83;;;;;;;26.24;41.21;100417.66;5052389;28;20036;-82
2023/09/27 09:47:47;;;;;;;13.68;6.30;;;;;;;26.70;41.74;100410.91;5052581;28;20068;-85
2023/09/27 09:50:16;;;;;;;14.93;6.07;;;;;;;27.19;38.99;100397.09;5052590;28;20044;-81
2023/09/27 09:52:57;;;;;;;12.80;4.45;;;;;;;27.31;39.37;100415.66;5054119;28;20040;-81
2023/09/27 09:55:27;;;;;;;13.98;7.60;;;;;;;27.45;39.56;100413.53;5071257;28;20037;-81
2023/09/27 09:58:29;;;;;;;14.40;4.50;;;;;;;27.90;38.57;100415.88;5063280;28;20039;-82
2023/09/27 10:00:58;;;;;;;24.65;18.63;;;;;;;28.29;38.42;100411.22;5058120;28;20051;-82
2023/09/27 10:03:30;;;;;;;30.55;20.50;;;;;;;28.03;37.44;100395.69;5063090;28;20131;-80
2023/09/27 10:05:56;;;;;;;12.00;4.53;;;;;;;28.09;37.58;100395.50;5056025;28;20028;-81
2023/09/27 10:08:23;;;;;;;12.45;5.70;;;;;;;28.03;37.15;100398.44;5052025;28;20036;-81
2023/09/27 10:10:48;;;;;;;9.70;4.10;;;;;;;28.20;36.24;100391.28;5051671;28;20505;-83
2023/09/27 10:13:14;;;;;;;12.02;4.10;;;;;;;28.19;36.51;100401.41;5050047;28;20086;-82
2023/09/27 10:15:42;;;;;;;17.10;6.65;;;;;;;28.26;36.73;100398.19;5051327;28;20021;-81
2023/09/27 10:18:22;;;;;;;;;;;;;;;28.10;37.58;100386.16;5060039;28;20029;-81
2023/09/27 10:21:03;;;;;;;12.93;4.03;;;;;;;27.72;37.05;100382.22;5051822;28;20262;-81
2023/09/27 10:23:43;;;;;;;8.95;3.88;;;;;;;27.99;36.80;100385.69;5052370;28;20555;-81
2023/09/27 10:26:28;;;;;;;16.85;5.63;;;;;;;28.14;37.31;100382.44;5051485;28;20038;-81
2023/09/27 10:29:06;;;;;;;13.55;3.65;;;;;;;27.74;36.66;100370.94;5043138;28;20047;-81
2023/09/27 10:31:37;;;;;;;16.63;5.50;;;;;;;27.68;37.44;100344.84;5051671;28;20460;-81
2023/09/27 10:34:28;;;;;;;11.23;3.90;;;;;;;27.96;35.22;100367.97;5051294;28;20025;-84
2023/09/27 10:36:54;;;;;;;11.93;4.75;;;;;;;27.58;35.43;100362.44;5050188;28;20450;-82
2023/09/27 10:39:20;;;;;;;11.40;4.20;;;;;;;27.39;35.34;100340.88;5047160;28;20083;-83
2023/09/27 10:41:49;;;;;;;16.20;8.45;;;;;;;27.34;34.12;100343.78;5060327;28;20036;-83
2023/09/27 10:44:31;;;;;;;8.82;2.80;;;;;;;27.51;33.21;100348.44;5054734;28;20482;-84
2023/09/27 10:47:04;;;;;;;12.45;4.22;;;;;;;27.35;32.70;100357.16;5059269;28;20099;-80
2023/09/27 10:49:38;;;;;;;11.18;3.10;;;;;;;27.10;33.07;100328.66;5049932;28;20032;-80
2023/09/27 10:52:15;;;;;;;12.73;5.72;;;;;;;27.02;33.56;100343.16;5049383;28;20123;-83
2023/09/27 10:54:40;;;;;;;18.17;3.53;;;;;;;27.27;33.45;100327.06;5048306;28;20024;-80
2023/09/27 10:57:06;;;;;;;14.07;3.55;;;;;;;27.40;32.57;100331.53;5053282;28;20123;-80
2023/09/27 10:59:31;;;;;;;10.48;3.28;;;;;;;27.68;32.55;100331.16;5049170;28;20024;-81
2023/09/27 11:02:02;;;;;;;11.95;3.20;;;;;;;27.80;32.15;100336.75;5056576;28;20409;-81
2023/09/27 11:04:29;;;;;;;9.82;2.92;;;;;;;27.81;32.32;100319.97;5058227;28;20087;-81
2023/09/27 11:06:56;;;;;;;55.33;27.83;;;;;;;28.18;32.32;100316.78;5060497;28;20529;-82
2023/09/27 11:09:23;;;;;;;11.82;2.97;;;;;;;28.19;33.45;100335.59;5052104;28;20033;-84
2023/09/27 11:11:50;;;;;;;12.15;3.30;;;;;;;27.99;33.86;100333.63;5051347;28;20057;-81
2023/09/27 11:14:31;;;;;;;;;;;;;;;28.29;33.25;100326.19;5050986;28;20039;-81
2023/09/27 11:17:13;;;;;;;11.00;3.22;;;;;;;28.78;33.72;100326.53;5054211;28;20378;-83
2023/09/27 11:19:38;;;;;;;10.82;3.25;;;;;;;29.30;32.96;100288.75;5062492;28;20064;-79
2023/09/27 11:22:03;;;;;;;8.90;3.00;;;;;;;29.01;32.37;100301.47;5064086;28;20092;-81